Portada
METAR-TAF:

METAR-TAF

Aeroports :

Aiken, Carolina del Sud, Estats Units d'Amèrica

latitud: 33-38-58N, longitud: 081-41-06W, altitud: 161 m

Observació

L'informe es va fer fa 12 minuts, a les 17:15 UTC
Vent 15 kt del Oest amb ràfegues de 23 kt
Temperatura 8°C
Humitat 39%
Pressió 1009 hPa
Visibilitat: 16.1 km
Cel ennuvolat a una alçada de 5000 ft
Cel ennuvolat a una alçada de 7000 ft
Cel cobert a una alçada de 10000 ft

METAR: KAIK 161715Z AUTO 27015G23KT 10SM BKN050 BKN070 OVC100 08/M05 A2979 RMK AO2 T00751047

Hora: 12:27 (17:27 UTC)


TAF: manca

Observacions i pronòstics meteorològics de més de 4000 aeroports (METAR i TAF).

Les estacions disponibles són els punts grocs i vermells al mapa.

Posi el ratolí al punt desitjat per veure el nom de l'estació.

Feu clic per veure les observacions i els pronòstics meteorològics.

Per canviar el mapa: feu clic els botons verds amb una creu de color negre per apropar; al botó verd amb un guió per allunyar la imatge; o en les fletxes verdes per a mapes adjacents.


METAR-TAF: